Wray, Colorado
Current Conditions -  °F | °C
As of 5:35 AM on Monday 26 Jan 2015 (Local Time) from K2V5 Reporting Station
Clear Clear  
Wind Chill:   Ceiling: Unl
Heat Index:   Visibility: 10mi
Dew Point: -1°   Wind: 12mph
Humidity: 69%   Direction: 270°W
Pressure: 30.12"   Gusts: NA
Location:  40.08°N, 102.22°W
Report Text: K2V5 261235Z AUTO 27010KT 10SM CLR 04/M01 A3012 RMK AO2 T00441008
Loading
Personal Weather Stations






























Interactive Weather Map New forecast layout! Learn more

10-Day Weather Forecast

Advertisements
Track Severe Weather on mobile